Time;durP1;ratioP1;P1;durP2;ratioP2;P2;SDS_P1;SDS_P2;PMS_P1;PMS_P2;Temp;Humidity;BMP_temperature;BMP_pressure;BME280_temperature;BME280_humidity;BME280_pressure;Samples;Min_cycle;Max_cycle;Signal;HPM_P1;HPM_P2
2022/08/16 00:01:17;;;;;;;6.82;6.30;;;22.30;99.90;;;;;;5063062;28;20205;-49
2022/08/16 00:03:44;;;;;;;7.50;6.90;;;22.30;99.90;;;;;;5065786;28;20216;-50
2022/08/16 00:06:11;;;;;;;7.43;6.93;;;22.30;99.90;;;;;;5054309;28;20202;-45
2022/08/16 00:08:38;;;;;;;7.55;7.05;;;22.30;99.90;;;;;;5062469;28;20571;-47
2022/08/16 00:11:06;;;;;;;7.43;6.80;;;22.30;99.90;;;;;;5064988;28;20252;-44
2022/08/16 00:13:33;;;;;;;6.47;6.00;;;22.30;99.90;;;;;;5060570;28;20222;-48
2022/08/16 00:16:01;;;;;;;7.40;6.57;;;22.30;99.90;;;;;;5061634;28;21083;-47
2022/08/16 00:18:28;;;;;;;7.22;6.72;;;22.30;99.90;;;;;;5062642;28;20195;-49
2022/08/16 00:20:55;;;;;;;6.85;6.30;;;22.30;99.90;;;;;;5059815;28;20494;-45
2022/08/16 00:23:22;;;;;;;6.57;6.00;;;22.30;99.90;;;;;;5062710;28;20551;-48
2022/08/16 00:25:49;;;;;;;8.65;7.03;;;22.30;99.90;;;;;;5061503;28;20283;-48
2022/08/16 00:28:16;;;;;;;9.00;6.70;;;22.30;99.90;;;;;;5077863;28;20197;-47
2022/08/16 00:30:43;;;;;;;7.20;6.60;;;22.30;99.90;;;;;;5059752;28;20219;-49
2022/08/16 00:33:11;;;;;;;6.50;5.97;;;22.30;99.90;;;;;;5062983;28;20218;-46
2022/08/16 00:35:38;;;;;;;6.72;6.18;;;22.30;99.90;;;;;;5061783;28;20197;-49
2022/08/16 00:38:06;;;;;;;6.97;6.38;;;22.30;99.90;;;;;;5061885;28;20217;-47
2022/08/16 00:40:38;;;;;;;6.43;5.93;;;22.30;99.90;;;;;;5069173;28;20226;-47
2022/08/16 00:43:08;;;;;;;6.68;6.13;;;22.30;99.90;;;;;;5060201;28;20221;-48
2022/08/16 00:45:39;;;;;;;7.05;6.30;;;22.30;99.90;;;;;;5060879;28;20206;-45
2022/08/16 00:48:09;;;;;;;8.27;7.22;;;22.30;99.90;;;;;;5062741;28;20198;-47
2022/08/16 00:50:40;;;;;;;7.50;6.65;;;22.30;99.90;;;;;;5057903;28;20691;-48
2022/08/16 00:53:09;;;;;;;7.07;6.25;;;22.30;99.90;;;;;;5055627;28;20210;-45
2022/08/16 00:55:39;;;;;;;6.85;6.35;;;22.30;99.90;;;;;;5073810;28;20209;-50
2022/08/16 00:58:09;;;;;;;7.20;6.65;;;22.30;99.90;;;;;;5065085;28;20348;-48
2022/08/16 01:00:36;;;;;;;7.65;7.05;;;22.30;99.90;;;;;;5067551;28;20260;-45
2022/08/16 01:03:06;;;;;;;7.43;6.93;;;22.30;99.90;;;;;;5061993;28;20888;-46
2022/08/16 01:05:34;;;;;;;8.98;6.78;;;22.20;99.90;;;;;;5070932;28;20202;-46
2022/08/16 01:08:04;;;;;;;8.27;7.43;;;22.10;99.90;;;;;;5060397;28;20568;-50
2022/08/16 01:10:33;;;;;;;8.30;7.63;;;22.00;99.90;;;;;;5070258;28;20707;-52
2022/08/16 01:13:04;;;;;;;8.27;7.68;;;22.00;99.90;;;;;;5059817;28;21042;-50
2022/08/16 01:15:31;;;;;;;8.60;7.90;;;21.80;99.90;;;;;;5063750;28;20198;-48
2022/08/16 01:18:00;;;;;;;8.40;7.80;;;21.80;99.90;;;;;;5082776;28;20186;-46
2022/08/16 01:20:31;;;;;;;8.30;7.60;;;21.80;99.90;;;;;;5064495;28;20227;-49
2022/08/16 01:23:07;;;;;;;8.40;7.68;;;21.70;99.90;;;;;;5050724;28;20198;-46
2022/08/16 01:25:40;;;;;;;9.60;8.70;;;21.70;99.90;;;;;;5073726;28;20190;-51
2022/08/16 01:28:12;;;;;;;9.27;8.48;;;21.60;99.90;;;;;;5072466;28;20271;-47
2022/08/16 01:30:43;;;;;;;9.52;8.68;;;21.50;99.90;;;;;;5065683;28;20219;-52
2022/08/16 01:33:09;;;;;;;9.57;8.65;;;21.50;99.90;;;;;;5064717;28;20279;-48
2022/08/16 01:35:42;;;;;;;10.20;9.13;;;21.50;99.90;;;;;;5062842;28;20202;-47
2022/08/16 01:38:17;;;;;;;9.43;8.60;;;21.50;99.90;;;;;;5061686;28;20194;-45
2022/08/16 01:40:46;;;;;;;9.93;9.10;;;21.40;99.90;;;;;;5060208;28;20309;-45
2022/08/16 01:43:13;;;;;;;9.93;9.00;;;21.30;99.90;;;;;;5062545;28;20241;-45
2022/08/16 01:45:40;;;;;;;9.80;8.85;;;21.30;99.90;;;;;;5062244;28;20268;-48
2022/08/16 01:48:08;;;;;;;10.88;9.88;;;21.40;99.90;;;;;;5064723;28;20286;-48
2022/08/16 01:50:36;;;;;;;10.20;9.30;;;21.30;99.90;;;;;;5063126;28;20733;-46
2022/08/16 01:53:03;;;;;;;10.45;9.55;;;21.30;99.90;;;;;;5063632;28;20203;-48
2022/08/16 01:55:41;;;;;;;9.88;9.07;;;21.20;99.90;;;;;;5056151;28;20259;-47
2022/08/16 01:58:09;;;;;;;11.00;10.00;;;21.20;99.90;;;;;;5084109;28;20206;-47
2022/08/16 02:00:36;;;;;;;10.98;10.07;;;21.20;99.90;;;;;;5068728;28;20560;-50
2022/08/16 02:03:04;;;;;;;11.47;10.37;;;21.10;99.90;;;;;;5064419;28;20191;-47
2022/08/16 02:05:31;;;;;;;11.93;10.73;;;21.00;99.90;;;;;;5062879;28;20206;-47
2022/08/16 02:08:00;;;;;;;12.53;11.30;;;21.00;99.90;;;;;;5062811;28;20198;-49
2022/08/16 02:10:28;;;;;;;12.33;11.27;;;21.00;99.90;;;;;;5051739;28;20710;-49
2022/08/16 02:12:55;;;;;;;12.80;11.67;;;20.90;99.90;;;;;;5067180;28;20209;-48
2022/08/16 02:15:27;;;;;;;12.27;11.07;;;20.90;99.90;;;;;;5083185;28;20202;-47
2022/08/16 02:17:57;;;;;;;13.17;11.47;;;20.90;99.90;;;;;;5080093;28;20193;-47
2022/08/16 02:20:25;;;;;;;13.67;12.37;;;20.80;99.90;;;;;;5084102;28;20222;-51
2022/08/16 02:22:52;;;;;;;13.47;12.17;;;20.90;99.90;;;;;;5080015;28;20193;-50
2022/08/16 02:25:19;;;;;;;13.07;11.77;;;20.80;99.90;;;;;;5068792;28;20206;-46
2022/08/16 02:27:47;;;;;;;13.50;12.13;;;20.80;99.90;;;;;;5065402;28;20285;-46
2022/08/16 02:30:22;;;;;;;13.37;12.07;;;20.90;99.90;;;;;;5068582;28;20218;-49
2022/08/16 02:32:51;;;;;;;13.43;12.23;;;20.90;99.90;;;;;;5079326;28;20228;-50
2022/08/16 02:35:19;;;;;;;14.13;12.83;;;20.80;99.90;;;;;;5082848;28;20221;-47
2022/08/16 02:37:46;;;;;;;12.37;11.23;;;20.70;99.90;;;;;;5079689;28;20198;-45
2022/08/16 02:40:15;;;;;;;12.93;11.83;;;20.70;99.90;;;;;;5083604;28;20283;-49
2022/08/16 02:42:42;;;;;;;13.77;12.43;;;20.70;99.90;;;;;;5056147;28;20210;-47
2022/08/16 02:45:10;;;;;;;14.60;13.30;;;20.70;99.90;;;;;;5068591;28;20684;-47
2022/08/16 02:47:36;;;;;;;14.40;12.97;;;20.60;99.90;;;;;;5080874;28;20206;-48
2022/08/16 02:50:07;;;;;;;14.90;13.63;;;20.60;99.90;;;;;;5082311;28;20217;-45
2022/08/16 02:52:34;;;;;;;13.97;12.73;;;20.60;99.90;;;;;;5082757;28;20213;-47
2022/08/16 02:55:08;;;;;;;14.80;13.43;;;20.60;99.90;;;;;;5081685;28;20725;-45
2022/08/16 02:57:36;;;;;;;14.60;13.20;;;20.60;99.90;;;;;;5059264;28;20217;-50
2022/08/16 03:00:07;;;;;;;15.60;13.73;;;20.50;99.90;;;;;;5063913;28;20911;-45
2022/08/16 03:02:37;;;;;;;14.07;12.80;;;20.50;99.90;;;;;;5062022;28;20294;-47
2022/08/16 03:05:11;;;;;;;14.97;13.60;;;20.40;99.90;;;;;;5062549;28;20276;-48
2022/08/16 03:07:39;;;;;;;14.63;13.23;;;20.40;99.90;;;;;;5060824;28;20209;-50
2022/08/16 03:10:10;;;;;;;15.40;13.80;;;20.40;99.90;;;;;;5063218;28;20847;-45
2022/08/16 03:12:42;;;;;;;14.97;13.57;;;20.40;99.90;;;;;;5056407;28;20260;-51
2022/08/16 03:15:12;;;;;;;16.23;14.67;;;20.30;99.90;;;;;;5065155;28;20717;-48
2022/08/16 03:17:40;;;;;;;17.23;15.07;;;20.30;99.90;;;;;;5073682;28;20268;-45
2022/08/16 03:20:12;;;;;;;15.27;13.83;;;20.30;99.90;;;;;;5082521;28;20222;-47
2022/08/16 03:22:40;;;;;;;15.53;14.13;;;20.40;99.90;;;;;;5057584;28;20207;-46
2022/08/16 03:25:12;;;;;;;15.93;14.47;;;20.30;99.90;;;;;;5066135;28;20194;-46
2022/08/16 03:27:44;;;;;;;16.30;14.70;;;20.30;99.90;;;;;;5053537;28;20210;-48
2022/08/16 03:30:19;;;;;;;15.33;13.93;;;20.30;99.90;;;;;;5065289;28;20219;-45
2022/08/16 03:32:52;;;;;;;15.53;14.03;;;20.20;99.90;;;;;;5058504;28;20388;-45
2022/08/16 03:35:25;;;;;;;15.30;13.80;;;20.20;99.90;;;;;;5062251;28;20280;-47
2022/08/16 03:37:56;;;;;;;15.83;14.33;;;20.20;99.90;;;;;;5059640;28;20195;-45
2022/08/16 03:40:24;;;;;;;16.30;14.80;;;20.10;99.90;;;;;;5062896;28;20230;-45
2022/08/16 03:42:51;;;;;;;16.80;14.87;;;20.10;99.90;;;;;;5060910;28;20217;-47
2022/08/16 03:45:18;;;;;;;15.17;13.57;;;20.10;99.90;;;;;;5069273;28;20239;-44
2022/08/16 03:47:47;;;;;;;16.20;14.70;;;20.10;99.90;;;;;;5058566;28;20459;-47
2022/08/16 03:50:15;;;;;;;16.07;14.60;;;20.10;99.90;;;;;;5083409;28;20274;-48
2022/08/16 03:52:43;;;;;;;18.20;15.50;;;20.10;99.90;;;;;;5092566;28;20206;-46
2022/08/16 03:55:12;;;;;;;17.40;15.70;;;20.00;99.90;;;;;;5061849;28;20218;-47
2022/08/16 03:57:39;;;;;;;16.07;14.47;;;20.00;99.90;;;;;;5055362;28;20203;-49
2022/08/16 04:00:12;;;;;;;17.40;15.70;;;20.00;99.90;;;;;;5071594;28;20318;-44
2022/08/16 04:02:41;;;;;;;16.10;14.27;;;20.00;99.90;;;;;;5059386;28;20252;-45
2022/08/16 04:05:13;;;;;;;15.50;14.00;;;20.00;99.90;;;;;;5059721;28;20209;-49
2022/08/16 04:07:42;;;;;;;14.93;13.50;;;19.90;99.90;;;;;;5072137;28;20659;-45
2022/08/16 04:10:12;;;;;;;15.30;13.77;;;19.90;99.90;;;;;;5063660;28;20229;-49
2022/08/16 04:12:40;;;;;;;15.20;13.80;;;19.90;99.90;;;;;;5072672;28;20255;-45
2022/08/16 04:15:09;;;;;;;14.77;13.47;;;19.80;99.90;;;;;;5057802;28;20615;-49
2022/08/16 04:17:42;;;;;;;14.17;12.80;;;19.90;99.90;;;;;;5062712;28;20750;-47
2022/08/16 04:20:13;;;;;;;15.30;13.90;;;19.90;99.90;;;;;;5068146;28;20681;-47
2022/08/16 04:22:42;;;;;;;14.60;13.30;;;19.90;99.90;;;;;;5075448;28;20671;-45
2022/08/16 04:25:11;;;;;;;16.37;14.57;;;19.90;99.90;;;;;;5060294;28;20199;-52
2022/08/16 04:27:39;;;;;;;16.67;14.93;;;19.90;99.90;;;;;;5073931;28;20206;-49
2022/08/16 04:30:10;;;;;;;17.23;15.53;;;19.90;99.90;;;;;;5051120;28;20307;-48
2022/08/16 04:32:40;;;;;;;17.73;15.90;;;19.90;99.90;;;;;;5067026;28;20242;-48
2022/08/16 04:35:09;;;;;;;17.93;16.00;;;19.90;99.90;;;;;;5068980;28;20210;-48
2022/08/16 04:37:37;;;;;;;18.73;16.93;;;19.80;99.90;;;;;;5064015;28;20205;-49
2022/08/16 04:40:17;;;;;;;18.87;16.97;;;19.80;99.90;;;;;;5065268;28;20263;-48
2022/08/16 04:42:44;;;;;;;18.83;17.03;;;19.80;99.90;;;;;;5068445;28;20280;-47
2022/08/16 04:45:13;;;;;;;19.27;17.37;;;19.80;99.90;;;;;;5062663;28;20348;-47
2022/08/16 04:47:41;;;;;;;17.47;15.87;;;19.80;99.90;;;;;;5070060;28;20226;-46
2022/08/16 04:50:16;;;;;;;18.40;16.17;;;19.80;99.90;;;;;;5069354;28;20218;-46
2022/08/16 04:52:58;;;;;;;18.77;16.87;;;19.90;99.90;;;;;;5073017;28;20285;-49
2022/08/16 04:55:28;;;;;;;19.27;17.20;;;19.90;99.90;;;;;;5060241;28;20303;-47
2022/08/16 04:57:56;;;;;;;19.07;17.13;;;20.00;99.90;;;;;;5077500;28;20672;-47
2022/08/16 05:00:31;;;;;;;19.00;16.97;;;20.00;99.90;;;;;;5053597;28;20427;-48
2022/08/16 05:02:58;;;;;;;18.97;17.07;;;20.00;99.90;;;;;;5072017;28;20205;-49
2022/08/16 05:05:25;;;;;;;19.03;17.17;;;20.00;99.90;;;;;;5061384;28;20265;-46
2022/08/16 05:07:52;;;;;;;19.17;17.23;;;20.00;99.90;;;;;;5078708;28;20202;-50
2022/08/16 05:10:19;;;;;;;19.30;16.80;;;20.10;99.90;;;;;;5071419;28;20309;-45
2022/08/16 05:12:47;;;;;;;19.93;17.97;;;20.10;99.90;;;;;;5073610;28;20194;-45
2022/08/16 05:15:14;;;;;;;20.10;18.07;;;20.10;99.90;;;;;;5059011;28;20206;-47
2022/08/16 05:17:42;;;;;;;22.40;20.20;;;20.10;99.90;;;;;;5073175;28;20222;-44
2022/08/16 05:20:14;;;;;;;21.10;18.70;;;20.10;99.90;;;;;;5074726;28;20214;-46
2022/08/16 05:22:41;;;;;;;21.73;19.63;;;20.20;99.90;;;;;;5074617;28;20206;-44
2022/08/16 05:25:12;;;;;;;23.07;19.90;;;20.20;99.90;;;;;;5071078;28;20205;-50
2022/08/16 05:27:44;;;;;;;20.43;18.43;;;20.20;99.90;;;;;;5076928;28;20194;-45
2022/08/16 05:30:15;;;;;;;22.00;19.60;;;20.20;99.90;;;;;;5058985;28;20615;-47
2022/08/16 05:32:43;;;;;;;21.50;19.17;;;20.20;99.90;;;;;;5067159;28;20613;-46
2022/08/16 05:35:12;;;;;;;21.90;19.80;;;20.30;99.90;;;;;;5067445;28;20255;-52
2022/08/16 05:37:56;;;;;;;23.20;20.90;;;20.20;99.90;;;;;;5067769;28;20195;-45
2022/08/16 05:40:23;;;;;;;23.47;21.07;;;20.30;99.90;;;;;;5064652;28;20295;-45
2022/08/16 05:42:51;;;;;;;24.70;22.00;;;20.30;99.90;;;;;;5076393;28;20209;-48
2022/08/16 05:45:20;;;;;;;23.27;20.80;;;20.40;99.90;;;;;;5075886;28;20984;-47
2022/08/16 05:47:47;;;;;;;21.80;19.50;;;20.40;99.90;;;;;;5062951;28;20242;-46
2022/08/16 05:50:15;;;;;;;23.30;20.90;;;20.50;99.90;;;;;;5068236;28;20233;-53
2022/08/16 05:52:41;;;;;;;21.47;19.33;;;20.50;99.90;;;;;;5074885;28;20202;-45
2022/08/16 05:55:09;;;;;;;22.53;19.40;;;20.50;99.90;;;;;;5075357;28;20722;-48
2022/08/16 05:57:36;;;;;;;21.27;19.17;;;20.60;99.90;;;;;;5072576;28;20257;-45
2022/08/16 06:00:05;;;;;;;23.67;20.40;;;20.60;99.90;;;;;;5065699;28;20218;-47
2022/08/16 06:02:41;;;;;;;21.83;19.67;;;20.60;99.90;;;;;;5058809;28;20573;-49
2022/08/16 06:05:26;;;;;;;21.40;19.13;;;20.70;99.90;;;;;;5063910;28;20209;-48
2022/08/16 06:07:53;;;;;;;22.73;20.43;;;20.70;99.90;;;;;;5064740;28;20228;-45
2022/08/16 06:10:27;;;;;;;21.17;19.17;;;20.70;99.90;;;;;;5070015;28;20221;-46
2022/08/16 06:12:54;;;;;;;22.23;19.83;;;20.80;99.90;;;;;;5070509;28;20194;-51
2022/08/16 06:15:21;;;;;;;22.03;19.80;;;20.80;99.90;;;;;;5057636;28;20309;-52
2022/08/16 06:17:50;;;;;;;21.23;19.00;;;20.80;99.90;;;;;;5059675;28;20210;-47
2022/08/16 06:20:21;;;;;;;21.50;19.37;;;20.80;99.90;;;;;;5065304;28;20230;-45
2022/08/16 06:22:49;;;;;;;21.17;18.83;;;20.80;99.90;;;;;;5069126;28;20202;-45
2022/08/16 06:25:17;;;;;;;19.83;17.87;;;20.80;99.90;;;;;;5067392;28;20191;-51
2022/08/16 06:27:44;;;;;;;21.23;19.13;;;20.80;99.90;;;;;;5065392;28;20624;-46
2022/08/16 06:30:12;;;;;;;21.53;17.97;;;20.90;99.90;;;;;;5068735;28;20616;-50
2022/08/16 06:32:41;;;;;;;22.07;19.70;;;20.90;99.90;;;;;;5072190;28;20205;-48
2022/08/16 06:35:10;;;;;;;22.20;18.27;;;21.00;99.90;;;;;;5056913;28;20233;-48
2022/08/16 06:37:39;;;;;;;20.80;18.90;;;21.00;99.90;;;;;;5066057;28;22244;-45
2022/08/16 06:40:09;;;;;;;21.50;19.45;;;21.30;99.90;;;;;;5071436;28;20509;-46
2022/08/16 06:42:41;;;;;;;19.73;17.83;;;21.50;99.90;;;;;;5081790;28;20206;-48
2022/08/16 06:45:19;;;;;;;20.02;18.05;;;21.40;99.90;;;;;;5061749;28;20202;-47
2022/08/16 06:47:56;;;;;;;19.27;17.40;;;21.40;99.90;;;;;;5058672;28;20202;-48
2022/08/16 06:50:27;;;;;;;19.20;17.20;;;21.30;99.90;;;;;;5066458;28;20227;-45
2022/08/16 06:52:54;;;;;;;20.63;17.77;;;21.40;99.90;;;;;;5061143;28;20293;-45
2022/08/16 06:55:22;;;;;;;19.90;17.77;;;21.40;99.90;;;;;;5060431;28;20219;-49
2022/08/16 06:57:54;;;;;;;19.42;17.15;;;21.50;99.90;;;;;;5063238;28;20815;-48
2022/08/16 07:00:23;;;;;;;17.05;15.18;;;21.50;99.90;;;;;;5073424;28;20573;-45
2022/08/16 07:02:57;;;;;;;17.13;15.05;;;21.60;99.90;;;;;;5062230;28;20289;-49
2022/08/16 07:05:23;;;;;;;18.73;16.93;;;21.70;99.90;;;;;;5053624;28;20209;-45
2022/08/16 07:08:04;;;;;;;15.77;14.17;;;21.80;99.90;;;;;;5063398;28;20283;-48
2022/08/16 07:10:32;;;;;;;16.08;14.25;;;21.80;99.90;;;;;;5066797;28;20618;-45
2022/08/16 07:12:59;;;;;;;16.57;14.67;;;21.90;99.90;;;;;;5063141;28;20212;-46
2022/08/16 07:15:26;;;;;;;14.57;13.00;;;22.00;99.90;;;;;;5064594;28;20317;-45
2022/08/16 07:17:53;;;;;;;16.60;14.88;;;22.10;99.90;;;;;;5060189;28;20218;-47
2022/08/16 07:20:21;;;;;;;14.60;13.13;;;22.20;99.90;;;;;;5052104;28;20253;-45
2022/08/16 07:22:55;;;;;;;14.35;12.68;;;22.30;99.90;;;;;;5063112;28;20202;-50
2022/08/16 07:25:30;;;;;;;19.17;13.55;;;22.30;99.90;;;;;;5081344;28;20201;-49
2022/08/16 07:27:58;;;;;;;13.45;12.05;;;22.30;99.90;;;;;;5070100;28;20572;-50
2022/08/16 07:30:28;;;;;;;16.67;12.70;;;22.30;99.90;;;;;;5071710;28;20231;-47
2022/08/16 07:32:58;;;;;;;11.88;10.75;;;22.40;99.90;;;;;;5064918;28;20281;-49
2022/08/16 07:35:25;;;;;;;13.15;11.77;;;22.40;99.90;;;;;;5054116;28;20210;-45
2022/08/16 07:37:52;;;;;;;15.48;11.75;;;22.50;99.90;;;;;;5078304;28;20202;-47
2022/08/16 07:40:41;;;;;;;10.95;9.95;;;22.50;99.90;;;;;;5069963;28;20230;-47
2022/08/16 07:43:07;;;;;;;9.90;8.90;;;22.70;99.90;;;;;;5073473;28;20214;-48
2022/08/16 07:45:35;;;;;;;8.93;7.95;;;22.80;99.90;;;;;;5070984;28;20221;-46
2022/08/16 07:48:02;;;;;;;9.05;8.15;;;22.90;99.90;;;;;;5071526;28;20240;-46
2022/08/16 07:50:30;;;;;;;8.88;7.13;;;23.00;99.90;;;;;;5056135;28;20241;-45
2022/08/16 07:52:57;;;;;;;8.27;7.47;;;23.10;99.90;;;;;;5069354;28;20191;-49
2022/08/16 07:55:24;;;;;;;8.90;6.53;;;23.20;99.90;;;;;;5066099;28;20239;-45
2022/08/16 07:57:52;;;;;;;8.40;6.55;;;23.40;99.90;;;;;;5064653;28;20217;-45
2022/08/16 08:00:19;;;;;;;8.57;7.10;;;23.50;99.90;;;;;;5071788;28;20301;-49
2022/08/16 08:02:49;;;;;;;7.88;7.07;;;23.50;99.90;;;;;;5063301;28;20222;-49
2022/08/16 08:05:23;;;;;;;6.97;6.35;;;23.60;99.90;;;;;;5053814;28;20198;-46
2022/08/16 08:07:52;;;;;;;7.43;6.70;;;23.60;99.90;;;;;;5063805;28;20199;-52
2022/08/16 08:10:20;;;;;;;8.73;7.38;;;23.70;99.90;;;;;;5073292;28;20247;-45
2022/08/16 08:12:48;;;;;;;7.80;6.47;;;23.80;99.90;;;;;;5069573;28;20548;-52
2022/08/16 08:15:17;;;;;;;7.25;6.43;;;23.90;99.90;;;;;;5074791;28;20214;-45
2022/08/16 08:17:45;;;;;;;9.27;6.45;;;24.00;99.90;;;;;;5063351;28;20194;-48
2022/08/16 08:20:19;;;;;;;7.45;5.72;;;24.10;99.90;;;;;;5065276;28;20272;-47
2022/08/16 08:22:48;;;;;;;8.30;6.63;;;24.20;99.90;;;;;;5059943;28;20242;-51
2022/08/16 08:25:15;;;;;;;9.27;7.60;;;24.30;99.90;;;;;;5060947;28;20202;-46
2022/08/16 08:27:42;;;;;;;8.02;7.20;;;24.30;99.90;;;;;;5063403;28;20211;-49
2022/08/16 08:30:11;;;;;;;7.85;7.15;;;24.20;99.90;;;;;;5068584;28;20221;-47
2022/08/16 08:32:40;;;;;;;8.63;6.88;;;24.10;99.90;;;;;;5058997;28;20206;-47
2022/08/16 08:35:08;;;;;;;7.03;6.43;;;24.10;99.90;;;;;;5066336;28;20198;-45
2022/08/16 08:37:36;;;;;;;7.90;6.45;;;24.20;99.90;;;;;;5064576;28;20617;-45
2022/08/16 08:40:08;;;;;;;7.72;7.03;;;24.20;99.90;;;;;;5072002;28;20206;-47
2022/08/16 08:42:35;;;;;;;7.72;6.97;;;24.10;99.90;;;;;;5064825;28;20206;-47
2022/08/16 08:45:02;;;;;;;10.52;8.07;;;24.00;99.90;;;;;;5063130;28;20207;-45
2022/08/16 08:47:30;;;;;;;7.93;6.88;;;24.10;99.90;;;;;;5083725;28;20198;-47
2022/08/16 08:49:59;;;;;;;8.75;7.95;;;24.10;99.90;;;;;;5062738;28;20213;-48
2022/08/16 08:52:28;;;;;;;7.75;6.97;;;24.10;99.90;;;;;;5068600;28;20358;-47
2022/08/16 08:54:55;;;;;;;6.90;6.32;;;24.10;99.90;;;;;;5050817;28;20230;-50
2022/08/16 08:57:23;;;;;;;8.05;7.22;;;24.20;99.90;;;;;;5068513;28;20225;-45
2022/08/16 08:59:59;;;;;;;6.93;6.32;;;24.30;99.90;;;;;;5064239;28;20213;-45
2022/08/16 09:02:25;;;;;;;7.88;7.05;;;24.40;99.90;;;;;;5060927;28;20579;-49
2022/08/16 09:04:58;;;;;;;8.32;7.53;;;24.40;99.90;;;;;;5069634;28;20248;-45
2022/08/16 09:07:25;;;;;;;7.57;6.70;;;24.40;99.90;;;;;;5065358;28;20194;-49
2022/08/16 09:09:55;;;;;;;8.77;6.55;;;24.40;99.90;;;;;;5058963;28;20227;-50
2022/08/16 09:12:22;;;;;;;7.88;7.20;;;24.40;99.90;;;;;;5058988;28;20883;-47
2022/08/16 09:14:57;;;;;;;7.78;6.50;;;24.50;99.90;;;;;;5071059;28;20198;-45
2022/08/16 09:17:27;;;;;;;9.30;7.68;;;24.60;99.90;;;;;;5057229;28;20300;-46
2022/08/16 09:19:55;;;;;;;7.53;6.82;;;24.80;99.90;;;;;;5067373;28;20240;-49
2022/08/16 09:22:24;;;;;;;8.80;7.88;;;24.90;99.90;;;;;;5061763;28;20210;-47
2022/08/16 09:24:51;;;;;;;7.82;7.10;;;24.90;99.90;;;;;;5055270;28;20206;-49
2022/08/16 09:27:19;;;;;;;7.20;6.60;;;24.90;99.90;;;;;;5070726;28;20218;-48
2022/08/16 09:29:46;;;;;;;6.85;6.35;;;25.00;99.90;;;;;;5069012;28;20230;-46
2022/08/16 09:32:17;;;;;;;9.55;6.78;;;25.10;99.90;;;;;;5074581;28;20293;-48
2022/08/16 09:34:44;;;;;;;8.70;7.90;;;25.20;99.90;;;;;;5074244;28;20655;-48
2022/08/16 09:37:12;;;;;;;8.02;6.07;;;25.20;99.90;;;;;;5079592;28;20218;-50
2022/08/16 09:39:40;;;;;;;7.72;6.80;;;25.30;99.90;;;;;;5057183;28;21015;-47
2022/08/16 09:42:07;;;;;;;7.75;7.05;;;25.50;99.90;;;;;;5074354;28;20190;-46
2022/08/16 09:44:34;;;;;;;7.25;6.75;;;25.50;99.90;;;;;;5070604;28;20194;-47
2022/08/16 09:47:03;;;;;;;10.05;7.07;;;25.50;99.90;;;;;;5074635;28;20638;-47
2022/08/16 09:49:30;;;;;;;13.35;8.00;;;25.50;99.90;;;;;;5064887;28;20215;-46
2022/08/16 09:51:56;;;;;;;12.85;6.60;;;25.50;99.90;;;;;;5067578;28;20285;-44
2022/08/16 09:54:25;;;;;;;8.13;7.35;;;25.50;99.90;;;;;;5066052;28;20904;-45
2022/08/16 09:56:54;;;;;;;7.82;6.53;;;25.70;99.90;;;;;;5062512;28;20222;-47
2022/08/16 09:59:23;;;;;;;7.15;6.53;;;25.80;99.90;;;;;;5059638;28;21035;-51
2022/08/16 10:01:51;;;;;;;7.70;6.65;;;25.80;99.90;;;;;;5069728;28;20268;-48
2022/08/16 10:04:19;;;;;;;9.57;6.68;;;25.90;99.60;;;;;;5063181;28;20202;-50
2022/08/16 10:06:48;;;;;;;13.43;6.05;;;25.90;99.20;;;;;;5066957;28;20186;-46
2022/08/16 10:09:15;;;;;;;7.15;6.53;;;25.90;99.10;;;;;;5069995;28;20218;-48
2022/08/16 10:14:30;;;;;;;12.70;5.90;;;26.10;98.20;;;;;;5072071;28;20921;-45
2022/08/16 10:16:58;;;;;;;5.95;5.35;;;26.20;97.90;;;;;;5068792;28;20219;-50
2022/08/16 10:19:26;;;;;;;5.68;5.15;;;26.20;97.90;;;;;;5064022;28;20244;-48
2022/08/16 10:21:53;;;;;;;6.10;5.60;;;26.30;97.10;;;;;;5069949;28;20198;-45
2022/08/16 10:24:20;;;;;;;6.38;5.55;;;26.30;96.20;;;;;;5062403;28;20206;-51
2022/08/16 10:26:47;;;;;;;7.47;5.05;;;26.30;96.10;;;;;;5060434;28;20202;-46
2022/08/16 10:29:15;;;;;;;6.03;5.20;;;26.40;95.60;;;;;;5072755;28;20214;-51
2022/08/16 10:31:44;;;;;;;6.75;5.28;;;26.60;95.10;;;;;;5065753;28;20198;-48
2022/08/16 10:34:13;;;;;;;6.45;5.95;;;;;;;;;;5060621;28;20203;-50
2022/08/16 10:36:40;;;;;;;5.97;5.40;;;26.80;97.80;;;;;;5077341;28;20210;-46
2022/08/16 10:39:07;;;;;;;7.85;6.35;;;26.90;94.70;;;;;;5064737;28;20230;-47
2022/08/16 10:41:34;;;;;;;5.72;5.30;;;27.00;94.40;;;;;;5054997;28;20202;-48
2022/08/16 10:44:00;;;;;;;6.30;5.53;;;27.10;93.70;;;;;;5071444;28;20217;-48
2022/08/16 10:46:27;;;;;;;6.97;6.45;;;27.10;93.80;;;;;;5077066;28;20506;-45
2022/08/16 10:48:56;;;;;;;6.80;6.28;;;27.30;93.70;;;;;;5067864;28;20289;-46
2022/08/16 10:51:24;;;;;;;29.67;7.15;;;27.30;93.70;;;;;;5070152;28;20209;-45
2022/08/16 10:53:50;;;;;;;7.05;6.40;;;27.30;94.00;;;;;;5076090;28;20190;-45
2022/08/16 10:56:18;;;;;;;6.65;6.07;;;27.40;93.60;;;;;;5070348;28;20222;-45
2022/08/16 10:58:45;;;;;;;5.75;5.25;;;27.30;93.40;;;;;;5055972;28;20233;-52
2022/08/16 11:01:14;;;;;;;5.40;5.00;;;27.50;93.40;;;;;;5072453;28;20228;-46
2022/08/16 11:03:42;;;;;;;6.45;5.95;;;27.60;93.20;;;;;;5064712;28;20202;-51
2022/08/16 11:06:10;;;;;;;10.07;5.85;;;27.70;92.90;;;;;;5060113;28;20195;-47
2022/08/16 11:08:37;;;;;;;5.68;5.25;;;27.80;93.00;;;;;;5079135;28;20578;-50
2022/08/16 11:11:05;;;;;;;8.85;5.18;;;27.80;92.20;;;;;;5064619;28;20993;-47
2022/08/16 11:13:33;;;;;;;9.70;6.20;;;27.70;92.20;;;;;;5060243;28;20754;-47
2022/08/16 11:16:00;;;;;;;12.55;7.00;;;27.50;92.60;;;;;;5073318;28;20193;-49
2022/08/16 11:18:29;;;;;;;8.63;7.18;;;27.30;93.00;;;;;;5063977;28;20203;-46
2022/08/16 11:20:57;;;;;;;7.93;7.32;;;27.20;93.30;;;;;;5067425;28;20851;-45
2022/08/16 11:23:26;;;;;;;7.45;6.72;;;27.20;93.40;;;;;;5072761;28;20208;-47
2022/08/16 11:25:54;;;;;;;7.80;6.55;;;27.10;93.30;;;;;;5069434;28;20189;-47
2022/08/16 11:28:20;;;;;;;9.55;5.65;;;27.20;93.50;;;;;;5059136;28;20585;-49
2022/08/16 11:30:47;;;;;;;7.25;6.45;;;27.20;93.60;;;;;;5068547;28;20221;-48
2022/08/16 11:33:14;;;;;;;8.23;5.72;;;27.30;93.40;;;;;;5069482;28;20731;-50
2022/08/16 11:35:41;;;;;;;6.60;5.45;;;27.40;93.20;;;;;;5065136;28;20205;-46
2022/08/16 11:38:10;;;;;;;5.57;5.20;;;27.50;92.60;;;;;;5077223;28;20202;-47
2022/08/16 11:40:45;;;;;;;8.05;5.53;;;27.70;92.30;;;;;;5069964;28;20576;-46
2022/08/16 11:43:13;;;;;;;6.50;5.90;;;27.90;91.90;;;;;;5069077;28;20251;-45
2022/08/16 11:45:40;;;;;;;6.22;5.72;;;28.10;91.50;;;;;;5059134;28;20207;-46
2022/08/16 11:48:08;;;;;;;7.50;5.38;;;28.20;91.50;;;;;;5072504;28;20209;-44
2022/08/16 11:50:35;;;;;;;6.40;5.90;;;28.30;90.80;;;;;;5068114;28;20229;-45
2022/08/16 11:53:04;;;;;;;8.35;5.40;;;28.10;90.70;;;;;;5067599;28;20284;-45
2022/08/16 11:55:31;;;;;;;6.78;6.15;;;27.90;91.10;;;;;;5068293;28;20284;-46
2022/08/16 11:58:00;;;;;;;6.53;5.93;;;27.90;91.10;;;;;;5070109;27;20228;-47
2022/08/16 12:00:28;;;;;;;6.93;5.88;;;27.70;91.30;;;;;;5058068;28;20234;-45
2022/08/16 12:02:55;;;;;;;5.80;5.30;;;27.60;91.40;;;;;;5067872;28;20195;-46
2022/08/16 12:05:23;;;;;;;6.05;5.55;;;27.70;91.70;;;;;;5064497;28;20292;-45
2022/08/16 12:07:50;;;;;;;5.85;5.35;;;27.80;91.70;;;;;;5061326;28;20750;-44
2022/08/16 12:10:19;;;;;;;5.63;5.22;;;28.10;91.20;;;;;;5063777;28;20222;-47
2022/08/16 12:12:46;;;;;;;5.93;5.38;;;28.30;90.90;;;;;;5060499;28;20210;-47
2022/08/16 12:15:15;;;;;;;6.18;5.72;;;28.20;90.20;;;;;;5053968;28;20252;-45
2022/08/16 12:17:43;;;;;;;7.00;6.32;;;28.20;90.00;;;;;;5070912;28;20225;-45
2022/08/16 12:20:12;;;;;;;7.75;6.38;;;28.00;90.50;;;;;;5063103;28;20238;-47
2022/08/16 12:22:39;;;;;;;6.32;5.78;;;28.10;90.40;;;;;;5070548;28;20585;-49
2022/08/16 12:25:08;;;;;;;6.43;5.82;;;28.00;90.30;;;;;;5080166;28;20352;-45
2022/08/16 12:27:36;;;;;;;6.40;5.57;;;27.90;90.50;;;;;;5072497;28;20230;-48
2022/08/16 12:30:04;;;;;;;5.68;5.30;;;27.90;90.80;;;;;;5071820;28;20918;-46
2022/08/16 12:32:33;;;;;;;7.05;6.38;;;28.00;90.80;;;;;;5051800;28;20213;-47
2022/08/16 12:35:00;;;;;;;8.18;5.80;;;28.00;91.10;;;;;;5068661;28;20191;-44
2022/08/16 12:37:28;;;;;;;6.90;6.20;;;27.90;91.60;;;;;;5063971;28;20288;-45
2022/08/16 12:39:56;;;;;;;6.60;6.00;;;28.10;92.00;;;;;;5070333;28;20232;-48
2022/08/16 12:42:24;;;;;;;6.93;6.25;;;28.40;92.00;;;;;;5064350;28;20196;-50
2022/08/16 12:44:51;;;;;;;7.03;6.38;;;28.40;91.60;;;;;;5062391;28;20198;-48
2022/08/16 12:50:06;;;;;;;6.65;6.00;;;28.10;91.30;;;;;;5066497;28;20210;-48
2022/08/16 12:52:33;;;;;;;7.00;6.30;;;28.10;91.50;;;;;;5066244;28;20190;-45